Etusivu
METAR-TAF:

METAR-TAF

Lentoasemat :

Haugesund, Norja

Leveyspiiri: 59-21N, Pituuspiiri: 005-13E, korkeus merenpinnasta: 2 m

Tämänhetkinen sää

Tämä raportti tehtiin 7 minuuttia sitten, kello 20.20 UTC
Tuuli 15 kn idästä/kaakosta
Lämpötila 12°C
Kosteus 67%
Ilmanpaine 1007 hPa
Näkyvyys 10 km tai enemmän
Muutamia pilviä 1500 ft:n korkeudessa
Hajonneita pilviä 3000 ft:n korkeudessa
heikkoa tihkusadetta

METAR: ENHD 242020Z 11015KT 9999 -DZ FEW015 BKN030 12/06 Q1007

Aika: 22:27 (20:27 UTC)

Sääennuste

Tämä raportti tehtiin 3 tuntia ja 27 minuuttia sitten, kello 17.00 UTC
Ennuste voimassa 24. päivästä klo 18 UTC - 24. päivään klo 21 UTC
Tuuli 20 kn idästä
Näkyvyys 10 km tai enemmän
ei pilviä alle 1500 m:ssä eikä cumulonimbus-pilviä
Todennäköisyys 30% :
Ajoittain
24. päivästä klo 19 UTC - 24. päivään klo 21 UTC
Hajonneita pilviä 4000 ft:n korkeudessa, Cumulonimbus.
vesikuuroja

TAF: ENHD 241700Z 2418/2421 10020KT CAVOK PROB30 TEMPO 2419/2421 SHRA BKN040CB

Säähavainnot ja -ennusteet yli 4000 lentoasemalta (METAR- ja TAF-raportit).

Käytössä olevat sääasemat on merkitty karttaan keltaisilla ja punaisilla pisteillä.

Aseta hiiri pisteen päälle nähdäksesi sääaseman nimen.

Klikkaa sitten nähdäksesi säähavainnot ja -ennusteet.

Kartan vaihtaminen: klikkaa mustalla rastilla varustettuja vihreitä pisteitä, niin voit zoomata sisään; viivalla varustettua vihreää pistettä, niin voit zoomata ulos tai vihreitä nuolia, niin pääset viereisille kartoille.


METAR-TAF: